createdAt,value
2019-06-10T00:00:41.897Z,2.90
2019-06-10T00:03:11.231Z,2.90
2019-06-10T00:05:36.652Z,2.90
2019-06-10T00:08:05.814Z,2.50
2019-06-10T00:10:32.892Z,2.50
2019-06-10T00:13:02.243Z,2.50
2019-06-10T00:15:27.536Z,2.60
2019-06-10T00:18:16.217Z,2.80
2019-06-10T00:20:21.820Z,2.93
2019-06-10T00:22:47.868Z,2.53
2019-06-10T00:25:14.932Z,2.50
2019-06-10T00:27:42.080Z,2.93
2019-06-10T00:30:12.314Z,2.80
2019-06-10T00:32:41.201Z,2.43
2019-06-10T00:35:07.843Z,2.53
2019-06-10T00:37:34.623Z,2.73
2019-06-10T00:40:02.621Z,3.20
2019-06-10T00:42:31.297Z,2.40
2019-06-10T00:44:56.618Z,3.10
2019-06-10T00:47:23.033Z,2.70
2019-06-10T00:49:51.450Z,3.00
2019-06-10T00:52:17.428Z,2.37
2019-06-10T00:54:43.758Z,2.70
2019-06-10T00:57:11.939Z,2.70
2019-06-10T00:59:37.801Z,2.90
2019-06-10T01:02:06.371Z,2.93
2019-06-10T01:04:33.085Z,2.60
2019-06-10T01:07:00.732Z,2.97
2019-06-10T01:09:27.104Z,3.00
2019-06-10T01:11:53.484Z,3.00
2019-06-10T01:14:21.576Z,3.10
2019-06-10T01:16:47.500Z,3.40
2019-06-10T01:19:15.648Z,3.00
2019-06-10T01:21:41.597Z,2.57
2019-06-10T01:24:09.550Z,2.83
2019-06-10T01:26:36.211Z,3.00
2019-06-10T01:29:02.503Z,2.60
2019-06-10T01:31:31.548Z,2.90
2019-06-10T01:33:56.803Z,3.37
2019-06-10T01:36:23.148Z,3.00
2019-06-10T01:38:51.160Z,3.43
2019-06-10T01:41:17.554Z,3.20
2019-06-10T01:43:44.272Z,3.20
2019-06-10T01:46:12.644Z,2.80
2019-06-10T01:48:45.029Z,3.13
2019-06-10T01:51:07.173Z,2.90
2019-06-10T01:53:34.300Z,3.13
2019-06-10T01:56:00.992Z,3.10
2019-06-10T01:58:28.088Z,3.40
2019-06-10T02:01:08.942Z,3.10
2019-06-10T02:03:36.619Z,3.53
2019-06-10T02:06:02.773Z,3.90
2019-06-10T02:08:31.377Z,3.27
2019-06-10T02:10:57.044Z,3.40
2019-06-10T02:13:32.680Z,3.53
2019-06-10T02:16:02.100Z,3.17
2019-06-10T02:18:31.656Z,2.97
2019-06-10T02:20:57.684Z,3.20
2019-06-10T02:23:25.450Z,2.87
2019-06-10T02:25:51.968Z,2.93
2019-06-10T02:28:21.660Z,3.23
2019-06-10T02:30:51.771Z,2.90
2019-06-10T02:33:22.793Z,3.00
2019-06-10T02:35:48.998Z,3.57
2019-06-10T02:38:19.843Z,4.30
2019-06-10T02:40:43.351Z,2.63
2019-06-10T02:43:15.462Z,3.23
2019-06-10T02:45:39.475Z,3.70
2019-06-10T02:48:05.968Z,3.23
2019-06-10T02:50:53.515Z,3.30
2019-06-10T02:53:21.090Z,3.50
2019-06-10T02:55:47.676Z,3.80
2019-06-10T02:58:15.604Z,3.40
2019-06-10T03:00:48.252Z,4.40
2019-06-10T03:03:14.091Z,3.90
2019-06-10T03:05:41.064Z,4.27
2019-06-10T03:08:07.860Z,3.50
2019-06-10T03:10:37.084Z,3.97
2019-06-10T03:13:03.043Z,3.27
2019-06-10T03:15:32.048Z,3.20
2019-06-10T03:17:58.280Z,3.73
2019-06-10T03:20:25.890Z,3.07
2019-06-10T03:22:52.605Z,2.90
2019-06-10T03:25:20.281Z,2.73
2019-06-10T03:27:47.408Z,2.97
2019-06-10T03:30:20.959Z,2.23
2019-06-10T03:32:46.805Z,2.70
2019-06-10T03:35:13.152Z,2.40
2019-06-10T03:37:42.377Z,2.73
2019-06-10T03:40:08.992Z,3.00
2019-06-10T03:42:35.039Z,2.67
2019-06-10T03:45:03.164Z,3.00
2019-06-10T03:47:29.312Z,2.33
2019-06-10T03:49:56.430Z,2.30
2019-06-10T03:52:25.274Z,2.40
2019-06-10T03:54:52.484Z,3.13
2019-06-10T03:57:19.273Z,2.40
2019-06-10T03:59:45.655Z,2.83
2019-06-10T04:02:12.803Z,2.53
2019-06-10T04:04:39.573Z,2.60
2019-06-10T04:07:05.631Z,2.33
2019-06-10T04:09:33.094Z,2.30
2019-06-10T04:12:02.019Z,2.60
2019-06-10T04:14:28.486Z,2.50
2019-06-10T04:16:55.012Z,2.90
2019-06-10T04:19:23.595Z,2.77
2019-06-10T04:21:49.303Z,2.30
2019-06-10T04:24:15.631Z,2.70
2019-06-10T04:26:43.460Z,2.77
2019-06-10T04:29:10.011Z,2.53
2019-06-10T04:31:36.372Z,2.60
2019-06-10T04:34:03.345Z,2.00
2019-06-10T04:36:30.314Z,2.60
2019-06-10T04:38:56.376Z,2.17
2019-06-10T04:41:23.445Z,2.23
2019-06-10T04:43:50.368Z,2.30
2019-06-10T04:46:17.140Z,2.60
2019-06-10T04:48:44.389Z,2.30
2019-06-10T04:51:12.887Z,2.10
2019-06-10T04:53:40.383Z,2.20
2019-06-10T04:56:07.027Z,2.67
2019-06-10T04:58:33.768Z,2.53
2019-06-10T05:00:59.936Z,2.27
2019-06-10T05:03:26.787Z,2.00
2019-06-10T05:05:54.296Z,2.20
2019-06-10T05:08:21.584Z,2.57
2019-06-10T05:10:49.004Z,2.43
2019-06-10T05:13:15.072Z,2.70
2019-06-10T05:15:43.335Z,3.47
2019-06-10T05:18:09.428Z,3.10
2019-06-10T05:20:50.966Z,2.53
2019-06-10T05:23:03.729Z,2.77
2019-06-10T05:25:30.181Z,2.97
2019-06-10T05:27:58.433Z,2.63
2019-06-10T05:30:26.559Z,2.80
2019-06-10T05:32:53.079Z,2.30
2019-06-10T05:35:20.468Z,2.30
2019-06-10T05:37:47.093Z,2.70
2019-06-10T05:40:13.872Z,2.77
2019-06-10T05:42:42.426Z,2.90
2019-06-10T05:45:09.456Z,2.90
2019-06-10T05:47:36.154Z,2.33
2019-06-10T05:50:04.720Z,2.57
2019-06-10T05:52:33.524Z,2.57
2019-06-10T05:54:59.104Z,2.97
2019-06-10T05:57:25.799Z,2.50
2019-06-10T05:59:52.410Z,2.73
2019-06-10T06:02:18.840Z,2.60
2019-06-10T06:04:45.260Z,2.00
2019-06-10T06:07:12.849Z,2.70
2019-06-10T06:09:39.091Z,2.73
2019-06-10T06:12:05.265Z,2.93
2019-06-10T06:14:32.225Z,2.30
2019-06-10T06:17:02.109Z,2.23
2019-06-10T06:19:28.227Z,2.77
2019-06-10T06:21:54.519Z,3.03
2019-06-10T06:24:22.046Z,2.23
2019-06-10T06:26:48.443Z,2.60
2019-06-10T06:29:15.272Z,2.30
2019-06-10T06:31:42.949Z,2.67
2019-06-10T06:34:09.960Z,2.70
2019-06-10T06:36:38.227Z,2.37
2019-06-10T06:39:06.985Z,2.87
2019-06-10T06:41:34.530Z,2.93
2019-06-10T06:44:02.355Z,2.33
2019-06-10T06:46:32.073Z,2.30
2019-06-10T06:48:58.083Z,2.40
2019-06-10T06:51:36.521Z,2.33
2019-06-10T06:53:56.107Z,2.40
2019-06-10T06:56:22.975Z,2.97
2019-06-10T06:58:49.264Z,2.63
2019-06-10T07:01:15.389Z,2.63
2019-06-10T07:03:44.659Z,2.13
2019-06-10T07:06:13.043Z,2.87
2019-06-10T07:08:40.764Z,2.53
2019-06-10T07:11:13.150Z,2.37
2019-06-10T07:13:45.564Z,2.37
2019-06-10T07:16:13.024Z,2.70
2019-06-10T07:18:43.125Z,2.70
2019-06-10T07:21:07.326Z,2.53
2019-06-10T07:23:37.145Z,2.50
2019-06-10T07:26:02.352Z,2.40
2019-06-10T07:28:28.948Z,2.70
2019-06-10T07:30:55.382Z,3.10
2019-06-10T07:33:22.667Z,2.77
2019-06-10T07:35:49.644Z,2.90
2019-06-10T07:38:15.798Z,2.80
2019-06-10T07:40:45.491Z,2.53
2019-06-10T07:43:12.754Z,2.63
2019-06-10T07:45:39.509Z,3.13
2019-06-10T07:48:06.819Z,2.47
2019-06-10T07:50:33.408Z,2.90
2019-06-10T07:53:02.287Z,2.90
2019-06-10T07:55:28.884Z,2.80
2019-06-10T07:57:55.612Z,2.60
2019-06-10T08:00:22.765Z,2.80
2019-06-10T08:02:49.618Z,2.50
2019-06-10T08:05:16.080Z,2.90
2019-06-10T08:07:45.123Z,3.00
2019-06-10T08:10:13.292Z,3.13
2019-06-10T08:12:39.855Z,2.90
2019-06-10T08:15:08.124Z,2.97
2019-06-10T08:17:34.263Z,3.17
2019-06-10T08:20:02.466Z,3.40
2019-06-10T08:22:33.612Z,2.53
2019-06-10T08:24:57.049Z,2.20
2019-06-10T08:27:23.361Z,3.23
2019-06-10T08:29:54.183Z,3.30
2019-06-10T08:32:17.659Z,3.03
2019-06-10T08:34:46.258Z,2.13
2019-06-10T08:37:13.607Z,2.60
2019-06-10T08:39:42.810Z,2.53
2019-06-10T08:42:08.395Z,2.93
2019-06-10T08:44:34.779Z,2.67
2019-06-10T08:47:02.943Z,2.90
2019-06-10T08:49:28.879Z,2.63
2019-06-10T08:51:55.261Z,2.47
2019-06-10T08:54:23.499Z,2.20
2019-06-10T08:56:53.433Z,2.80
2019-06-10T08:59:17.957Z,2.90
2019-06-10T09:01:49.218Z,2.57
2019-06-10T09:04:13.301Z,2.70
2019-06-10T09:06:41.036Z,2.97
2019-06-10T09:09:08.280Z,2.33
2019-06-10T09:11:34.765Z,2.73
2019-06-10T09:14:02.593Z,2.20
2019-06-10T09:16:29.421Z,2.80
2019-06-10T09:18:56.302Z,2.30
2019-06-10T09:21:22.689Z,2.63
2019-06-10T09:23:56.796Z,2.93
2019-06-10T09:26:17.078Z,2.60
2019-06-10T09:28:47.184Z,2.80
2019-06-10T09:31:14.011Z,2.80
2019-06-10T09:33:42.464Z,2.83
2019-06-10T09:36:07.637Z,2.70
2019-06-10T09:38:34.654Z,2.90
2019-06-10T09:41:06.192Z,2.67
2019-06-10T09:43:33.229Z,2.60
2019-06-10T09:45:59.476Z,2.57
2019-06-10T09:48:27.457Z,2.90
2019-06-10T09:50:57.931Z,2.80
2019-06-10T09:53:33.456Z,2.73
2019-06-10T09:55:55.301Z,3.20
2019-06-10T09:58:19.732Z,2.33
2019-06-10T10:00:57.576Z,2.70
2019-06-10T10:03:23.899Z,2.80
2019-06-10T10:05:59.298Z,2.70
2019-06-10T10:08:18.982Z,2.23
2019-06-10T10:10:47.953Z,2.33
2019-06-10T10:13:13.228Z,2.50
2019-06-10T10:15:41.890Z,3.30
2019-06-10T10:18:13.188Z,2.07
2019-06-10T10:20:38.784Z,3.03
2019-06-10T10:23:07.632Z,3.60
2019-06-10T10:25:35.100Z,2.70
2019-06-10T10:28:03.184Z,2.47
2019-06-10T10:30:33.000Z,2.57
2019-06-10T10:32:58.387Z,3.60
2019-06-10T10:35:25.158Z,2.87
2019-06-10T10:37:55.693Z,2.20
2019-06-10T10:40:23.279Z,2.27
2019-06-10T10:42:59.211Z,2.30
2019-06-10T10:45:22.528Z,2.10
2019-06-10T10:47:49.026Z,2.37
2019-06-10T10:50:17.532Z,2.70
2019-06-10T10:52:45.216Z,2.20
2019-06-10T10:55:14.146Z,2.50
2019-06-10T10:57:41.144Z,2.87
2019-06-10T11:00:12.387Z,2.63
2019-06-10T11:02:38.946Z,2.40
2019-06-10T11:05:07.599Z,2.80
2019-06-10T11:07:34.096Z,2.73
2019-06-10T11:10:03.627Z,3.00
2019-06-10T11:12:29.524Z,2.83
2019-06-10T11:15:00.504Z,2.90
2019-06-10T11:17:24.472Z,2.87
2019-06-10T11:19:53.738Z,2.97
2019-06-10T11:22:19.484Z,2.90
2019-06-10T11:24:47.604Z,2.33
2019-06-10T11:27:13.504Z,3.03
2019-06-10T11:29:42.115Z,3.10
2019-06-10T11:32:07.501Z,3.10
2019-06-10T11:34:33.911Z,3.40
2019-06-10T11:37:02.288Z,3.63
2019-06-10T11:39:28.681Z,4.77
2019-06-10T11:41:56.422Z,4.20
2019-06-10T11:44:23.504Z,4.00
2019-06-10T11:46:51.399Z,4.30
2019-06-10T11:49:17.908Z,4.50
2019-06-10T11:51:43.956Z,4.50
2019-06-10T11:54:12.632Z,4.70
2019-06-10T11:56:38.648Z,4.33
2019-06-10T11:59:09.524Z,3.40
2019-06-10T12:01:32.978Z,3.57
2019-06-10T12:04:03.375Z,3.60
2019-06-10T12:06:28.482Z,3.70
2019-06-10T12:08:58.300Z,4.00
2019-06-10T12:11:23.157Z,3.50
2019-06-10T12:13:49.381Z,3.37
2019-06-10T12:17:14.756Z,3.90
2019-06-10T12:18:44.197Z,3.37
2019-06-10T12:21:13.122Z,2.90
2019-06-10T12:23:38.691Z,3.30
2019-06-10T12:26:05.664Z,4.30
2019-06-10T12:28:32.672Z,4.53
2019-06-10T12:31:03.253Z,3.40
2019-06-10T12:33:28.140Z,3.80
2019-06-10T12:35:58.149Z,3.50
2019-06-10T12:38:22.913Z,3.27
2019-06-10T12:40:49.758Z,3.47
2019-06-10T12:43:15.804Z,3.60
2019-06-10T12:45:43.292Z,3.30
2019-06-10T12:48:10.128Z,3.40
2019-06-10T12:50:36.451Z,3.40
2019-06-10T12:53:07.026Z,3.50
2019-06-10T12:55:42.133Z,3.90
2019-06-10T12:57:59.882Z,3.20
2019-06-10T13:00:29.876Z,3.50
2019-06-10T13:02:58.044Z,3.30
2019-06-10T13:05:25.581Z,3.20
2019-06-10T13:07:55.534Z,3.50
2019-06-10T13:10:42.726Z,3.23
2019-06-10T13:13:09.326Z,3.13
2019-06-10T13:15:37.540Z,2.60
2019-06-10T13:18:07.598Z,3.60
2019-06-10T13:20:32.743Z,2.93
2019-06-10T13:22:58.796Z,2.90
2019-06-10T13:25:24.892Z,3.23
2019-06-10T13:27:51.854Z,3.17
2019-06-10T13:30:22.067Z,3.37
2019-06-10T13:32:48.313Z,2.60
2019-06-10T13:35:16.355Z,2.80
2019-06-10T13:37:42.849Z,2.77
2019-06-10T13:40:13.011Z,3.37
2019-06-10T13:42:42.229Z,3.17
2019-06-10T13:45:12.040Z,3.07
2019-06-10T13:47:38.866Z,2.93
2019-06-10T13:50:11.170Z,3.17
2019-06-10T13:52:37.476Z,3.33
2019-06-10T13:55:07.872Z,3.17
2019-06-10T13:57:34.206Z,2.60
2019-06-10T14:00:03.960Z,2.90
2019-06-10T14:02:28.700Z,2.70
2019-06-10T14:04:55.047Z,3.07
2019-06-10T14:07:23.283Z,2.90
2019-06-10T14:09:49.184Z,2.80
2019-06-10T14:12:17.562Z,3.77
2019-06-10T14:14:43.446Z,2.60
2019-06-10T14:17:09.708Z,2.93
2019-06-10T14:19:35.856Z,2.87
2019-06-10T14:22:04.877Z,2.80
2019-06-10T14:24:32.837Z,3.17
2019-06-10T14:26:58.127Z,2.70
2019-06-10T14:29:24.436Z,3.27
2019-06-10T14:31:53.054Z,2.67
2019-06-10T14:34:18.908Z,2.60
2019-06-10T14:36:45.129Z,3.07
2019-06-10T14:39:13.146Z,2.93
2019-06-10T14:41:39.145Z,2.53
2019-06-10T14:44:06.610Z,2.70
2019-06-10T14:46:33.348Z,2.90
2019-06-10T14:49:02.198Z,3.27
2019-06-10T14:51:27.738Z,3.37
2019-06-10T14:53:54.144Z,3.87
2019-06-10T14:56:23.134Z,3.03
2019-06-10T14:58:48.792Z,4.90
2019-06-10T15:01:21.931Z,4.17
2019-06-10T15:03:43.014Z,4.17
2019-06-10T15:06:11.368Z,5.23
2019-06-10T15:08:37.980Z,5.87
2019-06-10T15:11:04.060Z,4.67
2019-06-10T15:13:32.544Z,3.90
2019-06-10T15:15:58.093Z,4.27
2019-06-10T15:18:24.446Z,4.40
2019-06-10T15:20:53.182Z,3.50
2019-06-10T15:23:20.378Z,3.87
2019-06-10T15:25:52.405Z,4.20
2019-06-10T15:28:16.073Z,3.63
2019-06-10T15:30:43.198Z,3.90
2019-06-10T15:33:11.139Z,3.33
2019-06-10T15:35:38.545Z,2.97
2019-06-10T15:38:04.873Z,3.10
2019-06-10T15:40:32.487Z,2.77
2019-06-10T15:42:59.156Z,2.60
2019-06-10T15:45:25.500Z,2.87
2019-06-10T15:47:53.135Z,2.80
2019-06-10T15:50:21.156Z,2.70
2019-06-10T15:52:47.871Z,3.60
2019-06-10T15:55:33.350Z,4.20
2019-06-10T15:57:46.225Z,3.90
2019-06-10T16:00:17.703Z,3.40
2019-06-10T16:02:40.902Z,3.40
2019-06-10T16:05:07.712Z,2.57
2019-06-10T16:07:33.760Z,2.83
2019-06-10T16:10:02.710Z,4.27
2019-06-10T16:12:28.161Z,2.80
2019-06-10T16:14:54.229Z,2.80
2019-06-10T16:17:21.123Z,2.30
2019-06-10T16:19:48.244Z,2.77
2019-06-10T16:22:15.685Z,3.70
2019-06-10T16:24:42.358Z,2.70
2019-06-10T16:27:08.536Z,2.90
2019-06-10T16:29:34.591Z,2.40
2019-06-10T16:32:02.495Z,5.13
2019-06-10T16:34:29.160Z,2.50
2019-06-10T16:36:55.295Z,2.37
2019-06-10T16:39:23.730Z,2.50
2019-06-10T16:41:49.300Z,2.40
2019-06-10T16:44:15.885Z,2.90
2019-06-10T16:46:43.195Z,2.33
2019-06-10T16:49:12.553Z,2.50
2019-06-10T16:51:38.631Z,3.00
2019-06-10T16:54:05.049Z,2.73
2019-06-10T16:56:33.654Z,2.67
2019-06-10T16:58:59.076Z,3.13
2019-06-10T17:01:28.291Z,2.47
2019-06-10T17:03:53.095Z,3.43
2019-06-10T17:06:22.028Z,2.70
2019-06-10T17:08:48.109Z,2.77
2019-06-10T17:11:14.554Z,2.00
2019-06-10T17:13:42.257Z,2.30
2019-06-10T17:16:08.579Z,2.60
2019-06-10T17:18:34.922Z,2.70
2019-06-10T17:21:03.122Z,3.53
2019-06-10T17:23:33.394Z,2.80
2019-06-10T17:25:57.595Z,2.60
2019-06-10T17:28:29.712Z,2.87
2019-06-10T17:30:55.324Z,2.80
2019-06-10T17:33:22.900Z,3.00
2019-06-10T17:35:52.316Z,2.87
2019-06-10T17:38:17.992Z,2.37
2019-06-10T17:40:44.160Z,3.20
2019-06-10T17:43:10.209Z,2.70
2019-06-10T17:45:36.524Z,2.50
2019-06-10T17:48:03.201Z,2.80
2019-06-10T17:50:32.485Z,2.90
2019-06-10T17:52:58.317Z,3.30
2019-06-10T17:55:26.533Z,3.17
2019-06-10T17:57:52.316Z,3.77
2019-06-10T18:00:20.086Z,3.40
2019-06-10T18:02:46.508Z,2.83
2019-06-10T18:05:12.988Z,2.93
2019-06-10T18:07:39.744Z,2.97
2019-06-10T18:10:06.792Z,3.10
2019-06-10T18:12:35.711Z,3.00
2019-06-10T18:15:03.556Z,2.97
2019-06-10T18:17:30.458Z,2.83
2019-06-10T18:19:57.348Z,3.17
2019-06-10T18:22:24.418Z,2.90
2019-06-10T18:24:52.334Z,3.17
2019-06-10T18:27:18.680Z,2.87
2019-06-10T18:29:45.032Z,2.60
2019-06-10T18:32:12.518Z,2.27
2019-06-10T18:34:39.052Z,2.40
2019-06-10T18:37:05.433Z,2.43
2019-06-10T18:39:31.520Z,2.40
2019-06-10T18:41:57.664Z,2.40
2019-06-10T18:44:26.416Z,2.80
2019-06-10T18:46:51.663Z,2.40
2019-06-10T18:49:18.008Z,2.40
2019-06-10T18:51:44.139Z,2.30
2019-06-10T18:54:12.875Z,2.40
2019-06-10T18:56:40.095Z,2.73
2019-06-10T18:59:16.911Z,1.80
2019-06-10T19:01:36.711Z,2.63
2019-06-10T19:04:03.359Z,2.90
2019-06-10T19:06:30.617Z,2.27
2019-06-10T19:08:57.390Z,2.67
2019-06-10T19:11:23.775Z,2.37
2019-06-10T19:13:52.759Z,2.40
2019-06-10T19:16:18.092Z,2.10
2019-06-10T19:18:44.834Z,2.47
2019-06-10T19:21:12.955Z,2.10
2019-06-10T19:23:39.759Z,2.13
2019-06-10T19:26:06.840Z,2.57
2019-06-10T19:28:35.337Z,2.17
2019-06-10T19:31:02.383Z,1.97
2019-06-10T19:33:28.867Z,2.20
2019-06-10T19:35:54.927Z,3.50
2019-06-10T19:38:23.094Z,2.70
2019-06-10T19:40:51.979Z,2.70
2019-06-10T19:43:17.668Z,2.10
2019-06-10T19:45:43.724Z,2.63
2019-06-10T19:48:12.296Z,2.40
2019-06-10T19:50:39.415Z,2.60
2019-06-10T19:53:06.384Z,1.97
2019-06-10T19:55:33.732Z,2.60
2019-06-10T19:58:03.690Z,1.90
2019-06-10T20:00:29.420Z,2.70
2019-06-10T20:02:55.886Z,2.60
2019-06-10T20:05:22.592Z,2.10
2019-06-10T20:07:52.810Z,2.60
2019-06-10T20:10:17.337Z,2.90
2019-06-10T20:12:46.536Z,2.40
2019-06-10T20:15:22.615Z,2.60
2019-06-10T20:17:48.702Z,2.07
2019-06-10T20:20:15.372Z,2.40
2019-06-10T20:22:43.676Z,2.60
2019-06-10T20:25:12.479Z,2.57
2019-06-10T20:27:39.679Z,2.40
2019-06-10T20:30:24.359Z,2.90
2019-06-10T20:32:41.524Z,2.37
2019-06-10T20:35:12.385Z,2.70
2019-06-10T20:37:39.600Z,2.30
2019-06-10T20:40:08.336Z,2.17
2019-06-10T20:42:34.712Z,2.00
2019-06-10T20:45:02.772Z,2.40
2019-06-10T20:47:28.813Z,2.10
2019-06-10T20:49:56.158Z,2.00
2019-06-10T20:52:22.835Z,1.80
2019-06-10T20:54:53.058Z,2.70
2019-06-10T20:57:18.652Z,2.00
2019-06-10T20:59:46.950Z,2.10
2019-06-10T21:02:13.845Z,2.20
2019-06-10T21:04:41.657Z,3.00
2019-06-10T21:07:09.892Z,2.77
2019-06-10T21:09:39.444Z,2.23
2019-06-10T21:12:05.709Z,2.30
2019-06-10T21:14:33.105Z,2.20
2019-06-10T21:16:59.923Z,2.33
2019-06-10T21:19:26.256Z,2.20
2019-06-10T21:21:54.721Z,2.60
2019-06-10T21:24:23.133Z,2.93
2019-06-10T21:26:49.904Z,1.97
2019-06-10T21:29:17.716Z,2.50
2019-06-10T21:31:45.750Z,2.37
2019-06-10T21:34:12.559Z,2.27
2019-06-10T21:36:39.588Z,2.43
2019-06-10T21:39:07.058Z,1.90
2019-06-10T21:41:33.100Z,2.50
2019-06-10T21:43:59.708Z,2.20
2019-06-10T21:46:26.511Z,2.40
2019-06-10T21:48:55.634Z,2.40
2019-06-10T21:51:22.824Z,2.87
2019-06-10T21:53:48.866Z,2.17
2019-06-10T21:56:14.929Z,2.20
2019-06-10T21:58:42.328Z,1.80
2019-06-10T22:01:13.302Z,2.50
2019-06-10T22:03:38.215Z,2.20
2019-06-10T22:06:04.962Z,2.00
2019-06-10T22:08:33.397Z,2.40
2019-06-10T22:10:59.367Z,2.10
2019-06-10T22:13:25.790Z,2.50
2019-06-10T22:15:54.797Z,2.80
2019-06-10T22:18:22.750Z,2.50
2019-06-10T22:20:48.913Z,2.47
2019-06-10T22:23:15.979Z,2.20
2019-06-10T22:25:42.396Z,2.70
2019-06-10T22:28:08.780Z,2.10
2019-06-10T22:30:34.824Z,2.40
2019-06-10T22:33:03.063Z,2.50
2019-06-10T22:35:29.205Z,2.77
2019-06-10T22:37:56.588Z,2.50
2019-06-10T22:40:23.505Z,2.37
2019-06-10T22:42:49.551Z,2.70
2019-06-10T22:45:16.028Z,2.07
2019-06-10T22:47:42.716Z,2.17
2019-06-10T22:50:12.437Z,2.37
2019-06-10T22:52:38.124Z,2.23
2019-06-10T22:55:05.868Z,2.00
2019-06-10T22:57:32.274Z,2.60
2019-06-10T22:59:59.477Z,2.00
2019-06-10T23:02:26.424Z,2.23
2019-06-10T23:04:56.321Z,2.50
2019-06-10T23:07:22.892Z,2.23
2019-06-10T23:09:48.632Z,2.97
2019-06-10T23:12:16.469Z,2.70
2019-06-10T23:14:43.416Z,2.47
2019-06-10T23:17:09.820Z,2.73
2019-06-10T23:19:36.152Z,2.30
2019-06-10T23:22:03.419Z,2.20
2019-06-10T23:24:32.012Z,2.20
2019-06-10T23:26:58.002Z,2.30
2019-06-10T23:29:24.987Z,2.27
2019-06-10T23:31:58.537Z,2.17
2019-06-10T23:34:20.548Z,2.70
2019-06-10T23:36:46.956Z,2.07
2019-06-10T23:39:13.445Z,2.57
2019-06-10T23:41:39.511Z,2.77
2019-06-10T23:44:05.924Z,2.30
2019-06-10T23:46:32.344Z,2.33
2019-06-10T23:48:59.573Z,2.63
2019-06-10T23:51:26.127Z,2.13
2019-06-10T23:53:55.340Z,2.30
2019-06-10T23:56:22.111Z,2.10
2019-06-10T23:58:48.117Z,2.30
